Time;durP1;ratioP1;P1;durP2;ratioP2;P2;SDS_P1;SDS_P2;PMS_P1;PMS_P2;Temp;Humidity;BMP_temperature;BMP_pressure;BME280_temperature;BME280_humidity;BME280_pressure;Samples;Min_cycle;Max_cycle;Signal;HPM_P1;HPM_P2
2022/10/30 00:01:28;;;;;;;16.47;8.87;;;;;;;14.91;100.00;99494.59;4975189;28;20204;-80
2022/10/30 00:03:58;;;;;;;21.77;9.20;;;;;;;14.66;100.00;99500.91;4970172;28;20283;-81
2022/10/30 00:06:26;;;;;;;19.10;9.10;;;;;;;14.75;100.00;99487.72;4973056;28;20277;-80
2022/10/30 00:08:56;;;;;;;16.17;9.13;;;;;;;14.80;100.00;99498.91;4986562;28;20234;-81
2022/10/30 00:11:28;;;;;;;20.40;9.37;;;;;;;14.99;100.00;99497.53;4933205;29;20273;-81
2022/10/30 00:14:07;;;;;;;17.27;9.73;;;;;;;14.84;100.00;99487.03;4932096;29;20197;-81
2022/10/30 00:16:38;;;;;;;21.83;9.87;;;;;;;14.91;100.00;99484.75;4931919;29;20193;-81
2022/10/30 00:19:07;;;;;;;14.70;9.23;;;;;;;14.90;100.00;99477.72;4904189;29;20202;-81
2022/10/30 00:21:35;;;;;;;18.87;9.07;;;;;;;14.92;100.00;99477.59;4915728;29;20206;-81
2022/10/30 00:24:07;;;;;;;19.77;9.93;;;;;;;14.94;100.00;99471.19;4974554;28;20214;-80
2022/10/30 00:26:35;;;;;;;16.37;8.90;;;;;;;14.71;100.00;99482.78;5010229;28;20201;-80
2022/10/30 00:29:04;;;;;;;22.13;8.70;;;;;;;14.62;100.00;99484.31;5031673;28;20264;-80
2022/10/30 00:31:33;;;;;;;19.50;9.70;;;;;;;14.63;100.00;99462.00;5026712;28;20202;-80
2022/10/30 00:34:03;;;;;;;15.63;9.00;;;;;;;14.54;100.00;99466.22;5025576;28;20208;-81
2022/10/30 00:36:32;;;;;;;16.70;9.37;;;;;;;14.48;100.00;99482.69;5028449;28;20251;-81
2022/10/30 00:39:00;;;;;;;17.17;9.30;;;;;;;14.60;100.00;99489.75;5041709;28;20189;-81
2022/10/30 00:41:29;;;;;;;20.97;10.93;;;;;;;14.73;100.00;99489.69;5044602;28;20239;-81
2022/10/30 00:43:57;;;;;;;20.53;9.30;;;;;;;14.71;100.00;99494.28;5043284;28;20247;-81
2022/10/30 00:46:30;;;;;;;23.53;9.97;;;;;;;14.79;100.00;99497.22;5054994;28;20239;-81
2022/10/30 00:49:10;;;;;;;19.87;10.23;;;;;;;14.76;100.00;99491.25;5051849;28;20209;-81
2022/10/30 00:51:42;;;;;;;17.73;9.90;;;;;;;14.88;100.00;99491.19;4951551;28;20710;-81
2022/10/30 00:54:12;;;;;;;18.37;10.03;;;;;;;14.96;100.00;99484.41;4960621;28;20200;-81
2022/10/30 00:56:40;;;;;;;20.27;9.23;;;;;;;14.59;100.00;99500.53;4985980;28;20202;-81
2022/10/30 00:59:13;;;;;;;16.03;8.60;;;;;;;14.52;100.00;99504.63;4989630;28;20194;-81
2022/10/30 01:01:45;;;;;;;13.43;8.23;;;;;;;13.88;100.00;99483.53;4988654;28;20191;-81
2022/10/30 01:04:17;;;;;;;17.43;7.97;;;;;;;13.86;100.00;99485.44;4988299;28;20211;-81
2022/10/30 01:06:50;;;;;;;18.57;8.80;;;;;;;13.88;100.00;99483.53;4990687;28;20651;-81
2022/10/30 01:09:20;;;;;;;17.00;9.93;;;;;;;13.80;100.00;99491.25;5012742;28;20191;-82
2022/10/30 01:11:49;;;;;;;17.07;9.47;;;;;;;13.79;100.00;99500.16;5021892;28;20244;-81
2022/10/30 01:14:20;;;;;;;20.13;10.40;;;;;;;13.92;100.00;99485.03;5027408;28;20208;-81
2022/10/30 01:17:02;;;;;;;19.17;9.40;;;;;;;13.92;100.00;99500.16;5022652;28;20201;-81
2022/10/30 01:19:42;;;;;;;16.43;9.43;;;;;;;13.84;100.00;99494.53;5027878;28;20198;-81
2022/10/30 01:22:26;;;;;;;14.43;8.50;;;;;;;13.81;100.00;99498.25;5030984;28;20193;-81
2022/10/30 01:25:11;;;;;;;14.03;9.13;;;;;;;13.81;100.00;99500.09;5025920;28;20287;-81
2022/10/30 01:27:53;;;;;;;17.10;9.80;;;;;;;13.75;100.00;99504.03;5025987;28;20268;-81
2022/10/30 01:30:36;;;;;;;17.87;10.07;;;;;;;13.87;100.00;99496.97;5055432;28;20189;-81
2022/10/30 01:33:24;;;;;;;15.47;9.63;;;;;;;13.92;100.00;99502.81;5049332;28;20204;-81
2022/10/30 01:36:02;;;;;;;18.83;10.40;;;;;;;13.95;100.00;99494.59;5047914;28;20204;-81
2022/10/30 01:38:40;;;;;;;16.63;9.40;;;;;;;13.96;100.00;99490.97;5049207;28;20231;-81
2022/10/30 01:41:09;;;;;;;16.10;10.60;;;;;;;14.02;100.00;99493.19;5040921;28;20197;-81
2022/10/30 01:43:40;;;;;;;19.30;11.30;;;;;;;14.10;100.00;99492.63;5044053;28;20185;-81
2022/10/30 01:46:40;;;;;;;17.20;10.07;;;;;;;14.15;100.00;99488.66;5044537;28;20212;-81
2022/10/30 01:49:38;;;;;;;22.87;11.07;;;;;;;14.12;100.00;99491.56;5045331;28;20219;-81
2022/10/30 01:52:17;;;;;;;17.23;10.10;;;;;;;14.00;100.00;99493.31;5064260;28;20196;-80
2022/10/30 01:54:52;;;;;;;15.70;8.87;;;;;;;14.06;100.00;99481.34;5070443;28;20242;-81
2022/10/30 01:57:34;;;;;;;19.23;9.53;;;;;;;14.07;100.00;99483.03;5068474;28;20223;-81
2022/10/30 02:00:05;;;;;;;21.07;9.53;;;;;;;14.06;100.00;99483.16;5068356;28;20246;-80
2022/10/30 02:02:34;;;;;;;17.50;9.77;;;;;;;14.08;100.00;99481.22;5046542;28;20196;-81
2022/10/30 02:05:06;;;;;;;19.50;10.87;;;;;;;13.92;100.00;99474.38;5049617;28;20262;-80
2022/10/30 02:07:37;;;;;;;20.20;9.80;;;;;;;13.86;100.00;99481.94;5045333;28;20197;-81
2022/10/30 02:10:06;;;;;;;15.70;10.00;;;;;;;13.61;100.00;99488.19;5053182;28;20208;-81
2022/10/30 02:12:38;;;;;;;16.73;9.07;;;;;;;13.38;100.00;99488.00;5047454;28;20233;-81
2022/10/30 02:15:07;;;;;;;15.33;9.77;;;;;;;13.36;100.00;99483.75;5052634;28;20251;-80
2022/10/30 02:17:36;;;;;;;22.43;10.00;;;;;;;13.34;100.00;99481.19;5047369;28;20193;-81
2022/10/30 02:20:06;;;;;;;16.63;10.40;;;;;;;13.34;100.00;99483.00;5052998;28;20716;-80
2022/10/30 02:22:38;;;;;;;16.27;9.70;;;;;;;13.39;100.00;99499.47;5076595;28;20205;-80
2022/10/30 02:25:09;;;;;;;20.60;10.07;;;;;;;13.40;100.00;99487.88;5072145;28;20284;-81
2022/10/30 02:27:37;;;;;;;17.43;9.67;;;;;;;13.33;100.00;99494.59;5075836;28;20200;-81
2022/10/30 02:30:09;;;;;;;19.87;10.00;;;;;;;13.30;100.00;99505.44;5069827;28;20200;-81
2022/10/30 02:32:38;;;;;;;12.73;9.37;;;;;;;13.29;100.00;99514.38;5073312;28;20651;-81
2022/10/30 02:35:08;;;;;;;13.63;8.80;;;;;;;13.26;100.00;99502.16;5075670;28;20196;-80
2022/10/30 02:37:38;;;;;;;16.80;10.60;;;;;;;13.26;100.00;99510.13;5030112;28;20248;-81
2022/10/30 02:40:08;;;;;;;15.97;10.10;;;;;;;13.33;100.00;99503.44;5028472;28;20244;-80
2022/10/30 02:42:36;;;;;;;15.30;9.60;;;;;;;13.44;100.00;99497.38;5024697;28;20408;-80
2022/10/30 02:45:05;;;;;;;18.33;10.93;;;;;;;13.47;100.00;99502.47;5029218;28;20263;-80
2022/10/30 02:47:34;;;;;;;13.90;9.23;;;;;;;13.48;100.00;99506.81;5026358;28;20653;-80
2022/10/30 02:50:04;;;;;;;14.07;9.70;;;;;;;13.43;100.00;99509.81;5027864;28;20206;-81
2022/10/30 02:52:33;;;;;;;14.13;8.93;;;;;;;13.34;100.00;99506.94;5028479;28;20194;-80
2022/10/30 02:55:06;;;;;;;21.13;11.13;;;;;;;13.37;100.00;99509.38;5034668;28;20199;-81
2022/10/30 02:57:34;;;;;;;13.03;9.73;;;;;;;13.40;100.00;99498.53;5067695;28;20200;-81
2022/10/30 03:00:03;;;;;;;17.67;10.63;;;;;;;13.60;100.00;99491.78;5068861;28;20222;-81
2022/10/30 03:02:32;;;;;;;16.93;10.03;;;;;;;13.48;100.00;99496.19;5070524;28;20204;-81
2022/10/30 03:05:01;;;;;;;16.40;10.23;;;;;;;13.49;100.00;99495.22;5075078;28;20655;-81
2022/10/30 03:07:29;;;;;;;22.93;10.87;;;;;;;13.50;100.00;99494.25;5075292;28;20193;-81
2022/10/30 03:09:58;;;;;;;17.57;10.43;;;;;;;13.45;100.00;99497.25;5067740;28;20253;-81
2022/10/30 03:12:28;;;;;;;13.13;9.37;;;;;;;13.37;100.00;99498.75;5028986;28;20237;-81
2022/10/30 03:14:58;;;;;;;17.70;9.83;;;;;;;13.30;100.00;99487.66;5029659;28;20220;-81
2022/10/30 03:17:26;;;;;;;17.90;9.80;;;;;;;13.36;100.00;99497.03;5029642;28;20205;-82
2022/10/30 03:19:56;;;;;;;16.03;9.60;;;;;;;13.10;100.00;99499.66;5031752;28;20185;-81
2022/10/30 03:22:25;;;;;;;17.83;10.13;;;;;;;13.01;100.00;99496.78;5029275;28;20228;-81
2022/10/30 03:24:53;;;;;;;18.17;10.37;;;;;;;12.93;100.00;99491.13;5031984;28;20197;-82
2022/10/30 03:27:22;;;;;;;16.17;10.73;;;;;;;12.82;100.00;99491.88;4969510;28;20299;-82
2022/10/30 03:29:53;;;;;;;20.90;11.47;;;;;;;13.14;100.00;99495.84;4978799;28;20197;-81
2022/10/30 03:32:22;;;;;;;21.70;10.70;;;;;;;13.36;100.00;99497.03;5027154;28;20228;-81
2022/10/30 03:34:50;;;;;;;18.20;10.63;;;;;;;13.37;100.00;99498.75;5025811;28;20210;-82
2022/10/30 03:37:19;;;;;;;19.40;10.73;;;;;;;13.48;100.00;99508.63;4980521;28;20818;-82
2022/10/30 03:39:48;;;;;;;20.80;10.90;;;;;;;13.63;100.00;99500.44;5025236;28;20209;-82
2022/10/30 03:42:16;;;;;;;18.53;10.80;;;;;;;13.48;100.00;99505.97;5029811;28;20202;-82
2022/10/30 03:44:46;;;;;;;19.80;10.87;;;;;;;13.40;100.00;99510.00;4996345;28;20206;-81
2022/10/30 03:47:16;;;;;;;19.80;11.00;;;;;;;13.67;100.00;99499.25;4991438;28;20278;-81
2022/10/30 03:49:45;;;;;;;19.53;11.13;;;;;;;13.79;100.00;99500.16;4959983;28;20257;-81
2022/10/30 03:52:14;;;;;;;22.80;10.73;;;;;;;13.82;100.00;99501.78;5015498;28;20221;-81
2022/10/30 03:54:43;;;;;;;19.87;10.70;;;;;;;13.78;100.00;99498.47;5028570;28;20232;-81
2022/10/30 03:57:11;;;;;;;18.50;10.73;;;;;;;13.82;100.00;99496.44;5026572;28;20198;-81
2022/10/30 03:59:40;;;;;;;18.07;10.00;;;;;;;13.82;100.00;99486.66;5026373;28;20197;-81
2022/10/30 04:02:08;;;;;;;16.63;10.23;;;;;;;13.84;100.00;99487.38;5022106;28;20201;-81
2022/10/30 04:04:38;;;;;;;18.47;10.33;;;;;;;13.81;100.00;99489.44;5024891;28;20197;-81
2022/10/30 04:07:09;;;;;;;16.00;11.27;;;;;;;13.80;100.00;99482.38;5026319;28;20217;-81
2022/10/30 04:09:37;;;;;;;21.80;10.37;;;;;;;13.76;100.00;99484.41;5028512;28;20193;-80
2022/10/30 04:12:09;;;;;;;16.37;9.50;;;;;;;13.78;100.00;99481.63;5025702;28;20221;-81
2022/10/30 04:14:40;;;;;;;26.03;10.17;;;;;;;13.68;100.00;99481.44;4978335;28;20279;-81
2022/10/30 04:17:09;;;;;;;16.40;9.30;;;;;;;13.44;100.00;99482.25;5027888;28;20197;-81
2022/10/30 04:19:44;;;;;;;15.07;8.23;;;;;;;13.02;100.00;99478.06;5069334;28;20232;-81
2022/10/30 04:22:12;;;;;;;11.03;7.10;;;;;;;12.97;100.00;99471.38;5067996;28;20196;-81
2022/10/30 04:24:41;;;;;;;14.87;7.53;;;;;;;12.79;100.00;99473.47;5066318;28;20197;-81
2022/10/30 04:27:10;;;;;;;11.70;7.30;;;;;;;12.65;100.00;99461.13;5069283;28;20220;-81
2022/10/30 04:29:38;;;;;;;11.27;7.40;;;;;;;12.68;100.00;99463.56;5069417;28;20196;-81
2022/10/30 04:32:08;;;;;;;13.23;6.97;;;;;;;12.65;100.00;99469.13;5071705;28;20189;-81
2022/10/30 04:34:38;;;;;;;10.77;7.37;;;;;;;12.70;100.00;99455.50;4990875;28;20203;-81
2022/10/30 04:37:08;;;;;;;10.47;7.13;;;;;;;12.77;100.00;99454.97;4989300;28;20207;-81
2022/10/30 04:39:37;;;;;;;10.40;7.77;;;;;;;12.78;100.00;99451.38;4988253;28;20195;-81
2022/10/30 04:42:12;;;;;;;10.47;7.00;;;;;;;12.75;100.00;99451.59;4962073;28;20187;-81
2022/10/30 04:44:41;;;;;;;15.17;7.57;;;;;;;12.80;100.00;99446.78;4994824;28;20254;-81
2022/10/30 04:47:09;;;;;;;10.63;6.93;;;;;;;12.71;100.00;99447.41;4988858;28;20218;-81
2022/10/30 04:49:40;;;;;;;12.47;7.20;;;;;;;12.81;100.00;99447.63;4987320;28;20200;-81
2022/10/30 04:52:10;;;;;;;13.80;7.23;;;;;;;12.89;100.00;99450.63;5006649;28;20678;-81
2022/10/30 04:54:39;;;;;;;12.77;6.97;;;;;;;12.92;100.00;99449.56;5069568;28;20192;-81
2022/10/30 04:57:11;;;;;;;13.63;7.40;;;;;;;12.96;100.00;99443.94;5068260;28;20192;-81
2022/10/30 04:59:42;;;;;;;15.23;8.70;;;;;;;13.12;100.00;99444.59;5039667;28;20216;-81
2022/10/30 05:02:10;;;;;;;15.50;8.57;;;;;;;13.26;100.00;99446.28;5070307;28;20212;-81
2022/10/30 05:04:39;;;;;;;14.80;7.67;;;;;;;13.22;100.00;99452.81;5072678;28;20675;-81
2022/10/30 05:07:07;;;;;;;12.83;6.97;;;;;;;13.25;100.00;99452.56;5006095;28;20214;-81
2022/10/30 05:09:37;;;;;;;13.40;7.43;;;;;;;13.18;100.00;99457.44;5002875;28;20280;-81
2022/10/30 05:12:07;;;;;;;13.60;7.60;;;;;;;13.21;100.00;99451.06;5001358;28;20272;-81
2022/10/30 05:14:36;;;;;;;13.57;7.60;;;;;;;13.34;100.00;99449.28;4951610;28;20228;-81
2022/10/30 05:17:09;;;;;;;18.80;8.70;;;;;;;13.34;100.00;99449.28;4945270;28;20204;-81
2022/10/30 05:19:37;;;;;;;14.30;7.77;;;;;;;13.37;100.00;99449.03;4951004;28;20251;-82
2022/10/30 05:22:06;;;;;;;12.10;8.23;;;;;;;13.42;100.00;99451.38;4933455;29;20236;-81
2022/10/30 05:24:35;;;;;;;17.07;7.80;;;;;;;13.50;100.00;99448.16;4949565;28;20194;-81
2022/10/30 05:27:05;;;;;;;12.97;8.40;;;;;;;13.62;100.00;99447.31;5030949;28;20213;-82
2022/10/30 05:29:38;;;;;;;18.03;8.33;;;;;;;13.72;100.00;99454.50;5024943;28;20193;-81
2022/10/30 05:32:06;;;;;;;13.17;8.50;;;;;;;13.71;100.00;99444.84;5037391;28;20192;-81
2022/10/30 05:34:35;;;;;;;13.13;7.43;;;;;;;13.80;100.00;99445.97;5047361;28;20731;-81
2022/10/30 05:37:03;;;;;;;12.90;7.80;;;;;;;13.80;100.00;99448.66;5045283;28;20215;-81
2022/10/30 05:39:34;;;;;;;12.73;7.70;;;;;;;13.77;100.00;99448.00;5042626;28;20193;-81
2022/10/30 05:42:02;;;;;;;12.53;7.47;;;;;;;13.71;100.00;99446.66;5043174;28;20193;-82
2022/10/30 05:44:31;;;;;;;9.40;7.27;;;;;;;13.60;100.00;99439.41;4988756;28;20311;-81
2022/10/30 05:47:21;;;;;;;11.27;7.40;;;;;;;13.55;100.00;99438.91;4991304;28;20317;-82
2022/10/30 05:49:50;;;;;;;10.43;6.90;;;;;;;13.42;100.00;99440.75;5025443;28;20205;-81
2022/10/30 05:52:22;;;;;;;12.27;8.07;;;;;;;13.40;100.00;99445.31;5031404;28;20683;-81
2022/10/30 05:54:50;;;;;;;15.97;7.33;;;;;;;13.28;100.00;99444.38;4967093;28;20196;-81
2022/10/30 05:57:18;;;;;;;13.40;7.50;;;;;;;13.25;100.00;99449.91;4963478;28;20243;-82
2022/10/30 05:59:50;;;;;;;13.77;8.30;;;;;;;13.28;100.00;99448.84;4891131;29;20202;-81
2022/10/30 06:02:18;;;;;;;17.23;7.87;;;;;;;13.31;100.00;99448.63;4891350;29;20195;-81
2022/10/30 06:04:47;;;;;;;15.37;7.93;;;;;;;13.20;100.00;99453.84;4898148;29;20289;-81
2022/10/30 06:07:16;;;;;;;13.10;7.57;;;;;;;13.27;100.00;99444.47;4899590;29;20226;-82
2022/10/30 06:09:44;;;;;;;15.00;7.50;;;;;;;13.18;100.00;99446.78;4897159;29;20206;-81
2022/10/30 06:12:14;;;;;;;17.60;8.03;;;;;;;13.18;100.00;99457.44;4895635;29;20239;-81
2022/10/30 06:14:43;;;;;;;14.83;7.77;;;;;;;13.17;100.00;99463.72;4898169;29;20202;-82
2022/10/30 06:17:13;;;;;;;14.53;7.53;;;;;;;12.99;100.00;99469.44;4912849;28;20202;-80
2022/10/30 06:19:42;;;;;;;13.40;8.00;;;;;;;12.85;100.00;99473.06;5036155;28;20200;-81
2022/10/30 06:22:10;;;;;;;11.10;7.20;;;;;;;12.97;100.00;99466.06;5067781;28;20188;-81
2022/10/30 06:24:38;;;;;;;15.93;7.30;;;;;;;13.00;100.00;99482.63;4974038;28;20250;-81
2022/10/30 06:27:07;;;;;;;12.30;7.53;;;;;;;13.09;100.00;99482.00;4962700;28;20219;-82
2022/10/30 06:29:36;;;;;;;11.93;7.10;;;;;;;12.96;100.00;99483.81;4983654;28;20274;-81
2022/10/30 06:32:06;;;;;;;13.43;7.57;;;;;;;12.93;100.00;99491.97;4930627;29;20270;-80
2022/10/30 06:34:37;;;;;;;12.47;7.93;;;;;;;12.87;100.00;99495.09;4933166;29;20197;-81
2022/10/30 06:37:05;;;;;;;15.80;8.43;;;;;;;12.80;100.00;99496.44;4927825;29;20205;-81
2022/10/30 06:39:34;;;;;;;18.30;8.70;;;;;;;12.84;100.00;99495.31;4924610;29;20208;-81
2022/10/30 06:42:02;;;;;;;12.80;7.43;;;;;;;12.92;100.00;99497.41;4936882;28;20207;-81
2022/10/30 06:44:31;;;;;;;15.80;8.50;;;;;;;12.82;100.00;99503.34;4988214;28;20233;-81
2022/10/30 06:46:59;;;;;;;16.67;8.50;;;;;;;12.91;100.00;99496.56;4990091;28;20238;-81
2022/10/30 06:49:27;;;;;;;13.63;8.13;;;;;;;12.97;100.00;99493.50;4984883;28;20214;-81
2022/10/30 06:52:00;;;;;;;18.80;8.47;;;;;;;13.07;100.00;99499.88;4989647;28;20199;-82
2022/10/30 06:54:29;;;;;;;13.73;8.30;;;;;;;13.14;100.00;99498.50;4990483;28;20195;-81
2022/10/30 06:56:58;;;;;;;14.23;8.27;;;;;;;13.10;100.00;99493.50;4991848;28;20203;-81
2022/10/30 06:59:27;;;;;;;16.50;8.80;;;;;;;13.28;100.00;99488.75;5009657;28;20263;-81
2022/10/30 07:01:55;;;;;;;12.57;7.63;;;;;;;13.30;100.00;99492.13;5030206;28;20242;-81
2022/10/30 07:04:28;;;;;;;17.27;8.30;;;;;;;13.38;100.00;99493.31;4992640;28;20191;-81
2022/10/30 07:06:58;;;;;;;11.73;7.87;;;;;;;13.30;100.00;99494.81;4986387;28;20685;-82
2022/10/30 07:09:27;;;;;;;14.80;8.43;;;;;;;13.12;100.00;99500.44;4988509;28;20195;-82
2022/10/30 07:11:59;;;;;;;16.50;10.97;;;;;;;13.46;100.00;99498.09;4989056;28;20233;-82
2022/10/30 07:14:35;;;;;;;22.63;15.07;;;;;;;13.37;100.00;99496.09;4992790;28;20202;-81
2022/10/30 07:17:03;;;;;;;17.77;11.33;;;;;;;13.55;100.00;99493.94;4951029;29;20193;-81
2022/10/30 07:19:32;;;;;;;19.20;13.10;;;;;;;13.59;100.00;99495.41;4948482;29;20219;-81
2022/10/30 07:22:03;;;;;;;19.33;11.43;;;;;;;13.59;100.00;99503.41;4972484;28;20692;-81
2022/10/30 07:24:31;;;;;;;18.13;10.07;;;;;;;13.41;100.00;99508.19;5047667;28;20207;-81
2022/10/30 07:26:59;;;;;;;15.20;9.57;;;;;;;13.52;100.00;99513.66;5048169;28;20189;-81
2022/10/30 07:29:28;;;;;;;16.87;9.13;;;;;;;13.45;100.00;99513.22;5039791;28;20221;-81
2022/10/30 07:31:58;;;;;;;16.07;9.47;;;;;;;13.52;100.00;99512.81;5047882;28;20194;-81
2022/10/30 07:34:31;;;;;;;15.37;8.20;;;;;;;13.56;100.00;99507.13;5051987;28;20200;-81
2022/10/30 07:37:03;;;;;;;12.33;8.43;;;;;;;13.47;100.00;99499.81;5070942;28;20242;-81
2022/10/30 07:39:32;;;;;;;14.10;8.77;;;;;;;13.69;100.00;99504.44;5071038;28;20242;-81
2022/10/30 07:42:01;;;;;;;13.83;8.10;;;;;;;13.62;100.00;99506.72;5077052;28;20635;-83
2022/10/30 07:44:30;;;;;;;11.80;8.70;;;;;;;13.53;100.00;99504.69;5077523;28;20211;-82
2022/10/30 07:46:59;;;;;;;13.33;8.07;;;;;;;13.66;100.00;99510.00;5038767;28;20204;-81
2022/10/30 07:49:28;;;;;;;13.27;8.30;;;;;;;13.59;100.00;99500.75;4970178;28;20278;-80
2022/10/30 07:51:58;;;;;;;14.17;8.50;;;;;;;13.63;100.00;99500.44;4974855;28;20191;-80
2022/10/30 07:54:28;;;;;;;24.40;12.63;;;;;;;13.77;100.00;99503.91;4932106;29;20193;-81
2022/10/30 07:56:57;;;;;;;18.57;10.03;;;;;;;13.93;100.00;99496.53;4927211;29;20735;-81
2022/10/30 07:59:26;;;;;;;19.10;10.43;;;;;;;13.98;100.00;99499.69;4926646;29;20268;-81
2022/10/30 08:01:57;;;;;;;15.23;10.00;;;;;;;14.11;100.00;99489.84;4929630;29;20236;-81
2022/10/30 08:04:25;;;;;;;17.50;9.83;;;;;;;14.20;100.00;99496.34;4932882;29;20193;-81
2022/10/30 08:06:54;;;;;;;17.43;9.43;;;;;;;14.36;100.00;99488.03;4940899;28;20261;-81
2022/10/30 08:09:26;;;;;;;18.70;10.50;;;;;;;14.43;100.00;99494.63;4987287;28;20226;-81
2022/10/30 08:12:03;;;;;;;21.57;11.17;;;;;;;14.48;100.00;99490.69;4993884;28;20656;-83
2022/10/30 08:14:34;;;;;;;18.87;10.33;;;;;;;14.59;100.00;99500.53;4934626;29;20205;-81
2022/10/30 08:17:09;;;;;;;18.03;11.23;;;;;;;14.74;100.00;99494.03;4932377;29;20193;-81
2022/10/30 08:19:39;;;;;;;14.70;9.90;;;;;;;14.74;100.00;99498.53;4929145;29;20200;-80
2022/10/30 08:22:10;;;;;;;20.23;10.80;;;;;;;14.82;100.00;99506.81;4933053;29;20271;-81
2022/10/30 08:24:40;;;;;;;17.43;10.30;;;;;;;14.85;100.00;99503.88;4901315;29;20241;-81
2022/10/30 08:27:12;;;;;;;19.13;10.33;;;;;;;14.98;100.00;99496.66;4929761;29;20193;-80
2022/10/30 08:29:41;;;;;;;20.23;10.37;;;;;;;15.05;100.00;99500.53;4932957;29;20221;-80
2022/10/30 08:32:12;;;;;;;17.20;10.47;;;;;;;15.17;100.00;99490.78;4961793;28;20204;-80
2022/10/30 08:34:41;;;;;;;17.43;10.07;;;;;;;15.26;100.00;99500.72;5044483;28;20200;-81
2022/10/30 08:37:10;;;;;;;15.67;10.00;;;;;;;15.36;100.00;99500.84;5015976;28;20252;-81
2022/10/30 08:39:39;;;;;;;16.73;9.83;;;;;;;15.43;100.00;99500.22;5027043;28;20526;-81
2022/10/30 08:42:11;;;;;;;19.13;9.93;;;;;;;15.50;100.00;99489.94;5036767;28;20271;-81
2022/10/30 08:44:40;;;;;;;15.87;10.60;;;;;;;15.51;100.00;99501.47;5028281;28;20229;-81
2022/10/30 08:47:11;;;;;;;16.30;10.37;;;;;;;15.78;100.00;99493.13;5023692;28;20334;-81
2022/10/30 08:49:41;;;;;;;17.80;9.70;;;;;;;15.95;100.00;99489.94;5028833;28;20272;-81
2022/10/30 08:52:10;;;;;;;16.27;10.27;;;;;;;16.27;100.00;99495.31;5023309;28;20283;-81
2022/10/30 08:54:38;;;;;;;18.33;10.13;;;;;;;16.36;100.00;99485.69;5033927;28;20372;-81
2022/10/30 08:57:07;;;;;;;21.23;10.53;;;;;;;16.27;100.00;99484.63;5089506;28;20215;-81
2022/10/30 08:59:37;;;;;;;19.50;10.00;;;;;;;16.33;100.00;99481.47;5081707;28;20246;-81
2022/10/30 09:02:06;;;;;;;20.47;10.00;;;;;;;16.67;100.00;99468.78;5073556;28;20361;-81
2022/10/30 09:04:35;;;;;;;17.83;10.00;;;;;;;16.50;100.00;99459.53;5049738;28;20211;-82
2022/10/30 09:07:05;;;;;;;17.57;9.80;;;;;;;16.46;100.00;99466.09;5068368;28;20192;-81
2022/10/30 09:09:39;;;;;;;18.77;10.30;;;;;;;16.81;100.00;99460.50;5071752;28;20227;-80
2022/10/30 09:12:08;;;;;;;15.67;9.27;;;;;;;16.73;100.00;99452.25;5036018;28;20311;-81
2022/10/30 09:14:39;;;;;;;20.60;10.40;;;;;;;16.84;100.00;99464.72;5072329;28;20196;-80
2022/10/30 09:17:08;;;;;;;18.33;9.53;;;;;;;16.82;100.00;99453.31;5071618;28;20196;-81
2022/10/30 09:19:38;;;;;;;19.23;9.97;;;;;;;16.86;100.00;99449.38;5073186;28;20228;-80
2022/10/30 09:22:07;;;;;;;17.63;9.00;;;;;;;16.95;100.00;99453.94;5068445;28;20246;-81
2022/10/30 09:24:36;;;;;;;17.93;10.20;;;;;;;16.98;100.00;99456.34;5065774;28;20226;-81
2022/10/30 09:27:04;;;;;;;19.83;10.03;;;;;;;17.33;100.00;99450.63;5074420;28;20250;-81
2022/10/30 09:29:34;;;;;;;21.30;10.50;;;;;;;17.36;100.00;99453.03;5067502;28;20215;-80
2022/10/30 09:32:07;;;;;;;19.10;10.90;;;;;;;17.44;100.00;99444.34;5071420;28;20208;-81
2022/10/30 09:34:36;;;;;;;16.50;10.60;;;;;;;17.21;100.00;99442.84;5069513;28;20204;-81
2022/10/30 09:37:05;;;;;;;21.10;10.83;;;;;;;17.29;100.00;99443.03;5069220;28;20591;-81
2022/10/30 09:39:38;;;;;;;25.50;11.60;;;;;;;17.40;100.00;99440.25;4990351;28;20198;-81
2022/10/30 09:42:43;;;;;;;19.30;11.00;;;;;;;17.28;100.00;99441.31;5009254;28;20194;-81
2022/10/30 09:45:43;;;;;;;19.17;10.90;;;;;;;17.57;100.00;99442.28;4936412;28;20204;-82
2022/10/30 09:48:54;;;;;;;19.30;11.70;;;;;;;17.76;100.00;99438.00;4947796;29;20195;-81
2022/10/30 09:51:54;;;;;;;24.00;12.17;;;;;;;18.04;100.00;99429.16;4951503;29;20211;-81
2022/10/30 09:54:35;;;;;;;19.70;10.83;;;;;;;17.80;100.00;99424.19;4947900;29;20200;-81
2022/10/30 09:57:12;;;;;;;18.80;11.63;;;;;;;17.66;100.00;99438.81;4966835;28;20200;-81
2022/10/30 09:59:52;;;;;;;21.13;10.43;;;;;;;18.18;100.00;99435.97;5024859;28;20644;-81
2022/10/30 10:02:31;;;;;;;22.27;11.57;;;;;;;18.34;100.00;99435.44;5027550;28;20249;-82
2022/10/30 10:05:15;;;;;;;20.80;11.03;;;;;;;18.33;100.00;99434.53;5054507;28;20202;-81
2022/10/30 10:07:47;;;;;;;19.77;11.13;;;;;;;18.27;100.00;99425.25;5070169;28;20250;-81
2022/10/30 10:10:20;;;;;;;20.57;10.33;;;;;;;18.58;100.00;99422.41;5063903;28;20224;-81
2022/10/30 10:12:52;;;;;;;21.37;10.30;;;;;;;18.72;100.00;99418.47;5068926;28;20362;-81
2022/10/30 10:15:38;;;;;;;22.47;10.40;;;;;;;18.99;100.00;99412.34;5070390;28;20204;-81
2022/10/30 10:18:14;;;;;;;22.50;11.33;;;;;;;19.16;100.00;99415.13;5071080;28;20231;-81
2022/10/30 10:20:48;;;;;;;18.97;10.07;;;;;;;19.03;100.00;99408.38;5070902;28;20204;-81
2022/10/30 10:23:19;;;;;;;20.03;11.10;;;;;;;19.22;100.00;99407.47;5065264;28;20203;-81
2022/10/30 10:25:53;;;;;;;17.30;9.57;;;;;;;19.48;100.00;99402.25;5073741;28;20205;-81
2022/10/30 10:28:43;;;;;;;16.10;9.87;;;;;;;19.77;100.00;99402.13;5082202;28;20612;-82
2022/10/30 10:31:23;;;;;;;21.20;10.90;;;;;;;19.65;100.00;99402.34;5084493;28;20196;-81
2022/10/30 10:34:09;;;;;;;15.87;9.90;;;;;;;19.89;100.00;99392.88;5076853;28;20248;-81
2022/10/30 10:36:50;;;;;;;18.03;9.90;;;;;;;19.98;100.00;99398.19;4993596;28;20230;-81
2022/10/30 10:39:31;;;;;;;16.03;9.80;;;;;;;20.12;100.00;99394.13;4991589;28;20367;-81
2022/10/30 10:42:14;;;;;;;20.17;10.80;;;;;;;19.95;100.00;99390.41;4988532;28;20203;-81
2022/10/30 10:44:53;;;;;;;18.33;11.03;;;;;;;20.33;100.00;99392.97;4990769;28;20271;-82
2022/10/30 10:47:37;;;;;;;17.03;10.10;;;;;;;20.61;100.00;99380.28;4962637;28;20246;-81
2022/10/30 10:50:20;;;;;;;18.57;10.33;;;;;;;20.36;100.00;99376.50;4988758;28;20215;-80
2022/10/30 10:52:54;;;;;;;16.37;9.40;;;;;;;20.41;100.00;99376.88;4992901;28;20213;-81
2022/10/30 10:55:27;;;;;;;18.00;9.90;;;;;;;20.50;100.00;99376.00;5053773;28;20208;-80
2022/10/30 10:58:06;;;;;;;16.13;9.13;;;;;;;20.54;100.00;99372.81;5064241;28;20246;-81
2022/10/30 11:00:35;;;;;;;18.83;8.83;;;;;;;20.47;100.00;99370.94;5075573;28;20192;-81
2022/10/30 11:03:11;;;;;;;16.33;9.27;;;;;;;20.64;100.00;99367.34;5075026;28;20281;-80
2022/10/30 11:05:46;;;;;;;23.43;9.87;;;;;;;20.92;100.00;99362.66;5072612;28;20206;-81
2022/10/30 11:08:22;;;;;;;13.63;8.40;;;;;;;20.92;100.00;99361.81;5075582;28;20194;-81
2022/10/30 11:10:58;;;;;;;15.77;9.00;;;;;;;20.63;100.00;99371.03;5070501;28;20212;-80
2022/10/30 11:13:30;;;;;;;18.40;8.93;;;;;;;20.79;100.00;99368.47;5063734;28;20231;-80
2022/10/30 11:16:10;;;;;;;16.07;8.27;;;;;;;20.68;100.00;99366.03;5072444;28;20193;-81
2022/10/30 11:18:38;;;;;;;19.73;8.70;;;;;;;20.73;100.00;99366.41;5073690;28;20249;-80
2022/10/30 11:21:11;;;;;;;15.90;8.73;;;;;;;20.62;100.00;99363.13;5069707;28;20230;-81
2022/10/30 11:23:44;;;;;;;16.43;8.63;;;;;;;20.63;100.00;99360.25;5069274;28;20230;-80
2022/10/30 11:26:32;;;;;;;15.80;8.30;;;;;;;20.81;100.00;99361.06;5075150;28;20200;-80
2022/10/30 11:29:05;;;;;;;15.47;7.97;;;;;;;21.23;100.00;99357.63;5072814;28;20200;-81
2022/10/30 11:31:36;;;;;;;15.57;8.23;;;;;;;21.36;100.00;99354.50;5069205;28;20223;-81
2022/10/30 11:34:24;;;;;;;15.57;7.70;;;;;;;21.32;100.00;99348.56;5070174;28;20226;-81
2022/10/30 11:36:54;;;;;;;17.33;8.23;;;;;;;21.68;100.00;99335.72;5074196;28;20188;-81